createdAt,value
2018-05-17T00:00:29.924Z,0.00
2018-05-17T00:01:29.923Z,0.00
2018-05-17T00:02:29.918Z,0.00
2018-05-17T00:03:29.915Z,0.00
2018-05-17T00:04:29.915Z,0.00
2018-05-17T00:05:29.916Z,0.00
2018-05-17T00:06:29.920Z,0.00
2018-05-17T00:07:29.913Z,0.00
2018-05-17T00:08:29.913Z,0.00
2018-05-17T00:09:29.924Z,0.00
2018-05-17T00:10:29.910Z,0.00
2018-05-17T00:11:29.917Z,0.00
2018-05-17T00:12:29.908Z,0.00
2018-05-17T00:13:29.907Z,0.00
2018-05-17T00:14:29.904Z,0.00
2018-05-17T00:15:29.905Z,0.00
2018-05-17T00:16:29.905Z,0.00
2018-05-17T00:17:29.904Z,0.00
2018-05-17T00:18:29.902Z,0.00
2018-05-17T00:19:29.900Z,0.00
2018-05-17T00:20:29.902Z,0.00
2018-05-17T00:21:29.899Z,0.00
2018-05-17T00:22:29.902Z,0.00
2018-05-17T00:23:29.894Z,0.00
2018-05-17T00:24:29.897Z,0.00
2018-05-17T00:25:29.901Z,0.00
2018-05-17T00:26:29.894Z,0.00
2018-05-17T00:27:29.887Z,0.00
2018-05-17T00:28:29.890Z,0.00
2018-05-17T00:29:29.895Z,0.00
2018-05-17T00:30:29.892Z,0.00
2018-05-17T00:31:29.889Z,0.00
2018-05-17T00:32:29.887Z,0.00
2018-05-17T00:33:29.885Z,0.00
2018-05-17T00:34:29.888Z,0.00
2018-05-17T00:35:29.888Z,0.00
2018-05-17T00:36:29.889Z,0.00
2018-05-17T00:37:29.885Z,0.00
2018-05-17T00:38:29.880Z,0.00
2018-05-17T00:39:29.880Z,0.00
2018-05-17T00:40:29.874Z,0.00
2018-05-17T00:41:29.877Z,0.00
2018-05-17T00:42:29.878Z,0.00
2018-05-17T00:43:29.873Z,0.00
2018-05-17T00:44:29.876Z,0.00
2018-05-17T00:45:29.873Z,0.00
2018-05-17T00:46:29.872Z,0.00
2018-05-17T00:47:29.872Z,0.00
2018-05-17T00:48:29.874Z,0.00
2018-05-17T00:49:29.866Z,0.00
2018-05-17T00:50:29.873Z,0.00
2018-05-17T00:51:29.863Z,0.00
2018-05-17T00:52:29.942Z,0.00
2018-05-17T00:53:29.864Z,0.00
2018-05-17T00:54:29.860Z,0.00
2018-05-17T00:55:29.864Z,0.00
2018-05-17T00:56:29.860Z,0.00
2018-05-17T00:57:29.863Z,0.00
2018-05-17T00:58:29.858Z,0.00
2018-05-17T00:59:29.853Z,0.00
2018-05-17T01:00:29.855Z,0.00
2018-05-17T01:01:29.858Z,0.00
2018-05-17T01:02:29.850Z,0.00
2018-05-17T01:03:29.849Z,0.00
2018-05-17T01:04:29.849Z,0.00
2018-05-17T01:05:29.848Z,0.00
2018-05-17T01:06:29.845Z,0.00
2018-05-17T01:07:29.844Z,0.00
2018-05-17T01:08:29.844Z,0.00
2018-05-17T01:09:29.843Z,0.00
2018-05-17T01:10:29.842Z,0.00
2018-05-17T01:11:29.847Z,0.00
2018-05-17T01:12:29.841Z,0.00
2018-05-17T01:13:29.836Z,0.00
2018-05-17T01:14:29.843Z,0.00
2018-05-17T01:15:29.833Z,0.00
2018-05-17T01:16:29.835Z,0.00
2018-05-17T01:17:29.833Z,0.00
2018-05-17T01:18:29.832Z,0.00
2018-05-17T01:19:29.831Z,0.00
2018-05-17T01:20:29.829Z,0.00
2018-05-17T01:21:29.829Z,0.00
2018-05-17T01:22:29.832Z,0.00
2018-05-17T01:23:29.827Z,0.00
2018-05-17T01:24:29.826Z,0.00
2018-05-17T01:25:29.824Z,0.00
2018-05-17T01:26:29.824Z,0.00
2018-05-17T01:27:29.827Z,0.00
2018-05-17T01:28:29.818Z,0.00
2018-05-17T01:29:29.818Z,0.00
2018-05-17T01:30:29.817Z,0.00
2018-05-17T01:31:29.814Z,0.00
2018-05-17T01:32:29.812Z,0.00
2018-05-17T01:33:29.813Z,0.00
2018-05-17T01:34:29.813Z,0.00
2018-05-17T01:35:29.811Z,0.00
2018-05-17T01:36:29.805Z,0.00
2018-05-17T01:37:29.807Z,0.00
2018-05-17T01:38:29.821Z,0.00
2018-05-17T01:39:29.805Z,0.00
2018-05-17T01:40:29.805Z,0.00
2018-05-17T01:41:29.803Z,0.00
2018-05-17T01:42:29.802Z,0.00
2018-05-17T01:43:29.800Z,0.00
2018-05-17T01:44:29.797Z,0.00
2018-05-17T01:45:29.799Z,0.00
2018-05-17T01:46:29.796Z,0.00
2018-05-17T01:47:29.795Z,0.00
2018-05-17T01:48:29.795Z,0.00
2018-05-17T01:49:29.792Z,0.00
2018-05-17T01:50:29.791Z,0.00
2018-05-17T01:51:29.791Z,0.00
2018-05-17T01:52:29.790Z,0.00
2018-05-17T01:53:29.787Z,0.00
2018-05-17T01:54:29.789Z,0.00
2018-05-17T01:55:29.786Z,0.00
2018-05-17T01:56:29.782Z,0.00
2018-05-17T01:57:29.781Z,0.00
2018-05-17T01:58:29.786Z,0.00
2018-05-17T01:59:29.778Z,0.00
2018-05-17T02:00:29.777Z,0.00
2018-05-17T02:01:29.780Z,0.00
2018-05-17T02:02:29.774Z,0.00
2018-05-17T02:03:29.773Z,0.00
2018-05-17T02:04:29.772Z,0.00
2018-05-17T02:05:29.774Z,0.00
2018-05-17T02:06:29.766Z,0.00
2018-05-17T02:07:29.767Z,0.00
2018-05-17T02:08:29.766Z,0.00
2018-05-17T02:09:29.764Z,0.00
2018-05-17T02:10:29.759Z,0.00
2018-05-17T02:11:29.760Z,0.00
2018-05-17T02:12:29.765Z,0.00
2018-05-17T02:13:29.757Z,0.00
2018-05-17T02:14:29.763Z,0.00
2018-05-17T02:15:29.753Z,0.00
2018-05-17T02:16:29.754Z,0.00
2018-05-17T02:17:29.753Z,0.00
2018-05-17T02:18:29.752Z,0.00
2018-05-17T02:19:29.751Z,0.00
2018-05-17T02:20:29.746Z,0.00
2018-05-17T02:21:29.747Z,0.00
2018-05-17T02:22:29.740Z,0.00
2018-05-17T02:23:29.739Z,0.00
2018-05-17T02:24:29.738Z,0.00
2018-05-17T02:25:29.739Z,0.00
2018-05-17T02:26:29.737Z,0.00
2018-05-17T02:27:29.734Z,0.00
2018-05-17T02:28:29.730Z,0.00
2018-05-17T02:29:29.732Z,0.00
2018-05-17T02:30:29.727Z,0.00
2018-05-17T02:31:29.734Z,4.00
2018-05-17T02:32:29.724Z,4.00
2018-05-17T02:33:29.725Z,4.00
2018-05-17T02:34:29.724Z,0.00
2018-05-17T02:35:29.718Z,4.00
2018-05-17T02:36:29.717Z,4.00
2018-05-17T02:37:29.718Z,4.00
2018-05-17T02:38:29.713Z,4.00
2018-05-17T02:39:29.709Z,4.00
2018-05-17T02:40:29.720Z,8.00
2018-05-17T02:41:29.724Z,8.00
2018-05-17T02:42:29.708Z,8.00
2018-05-17T02:43:29.705Z,8.00
2018-05-17T02:44:29.700Z,8.00
2018-05-17T02:45:29.694Z,12.00
2018-05-17T02:46:29.695Z,12.00
2018-05-17T02:47:29.693Z,16.00
2018-05-17T02:48:29.694Z,16.00
2018-05-17T02:49:29.693Z,20.00
2018-05-17T02:50:29.689Z,20.00
2018-05-17T02:51:29.686Z,24.00
2018-05-17T02:52:29.684Z,24.00
2018-05-17T02:53:29.689Z,24.00
2018-05-17T02:54:29.679Z,28.00
2018-05-17T02:55:29.677Z,32.00
2018-05-17T02:56:29.679Z,36.00
2018-05-17T02:57:29.681Z,40.00
2018-05-17T02:58:29.672Z,44.00
2018-05-17T02:59:29.668Z,52.00
2018-05-17T03:00:29.668Z,56.00
2018-05-17T03:01:29.665Z,60.00
2018-05-17T03:02:29.668Z,64.00
2018-05-17T03:03:29.660Z,68.00
2018-05-17T03:04:29.660Z,76.00
2018-05-17T03:05:29.664Z,80.00
2018-05-17T03:06:29.657Z,84.00
2018-05-17T03:07:29.653Z,88.00
2018-05-17T03:08:29.654Z,100.00
2018-05-17T03:09:29.652Z,104.00
2018-05-17T03:10:29.647Z,112.00
2018-05-17T03:11:29.645Z,120.00
2018-05-17T03:12:29.642Z,128.00
2018-05-17T03:13:29.640Z,136.00
2018-05-17T03:14:29.644Z,144.00
2018-05-17T03:15:29.636Z,152.00
2018-05-17T03:16:29.640Z,164.00
2018-05-17T03:17:29.631Z,176.00
2018-05-17T03:18:29.630Z,188.00
2018-05-17T03:19:29.626Z,196.00
2018-05-17T03:20:29.625Z,212.00
2018-05-17T03:21:29.623Z,224.00
2018-05-17T03:22:29.623Z,236.00
2018-05-17T03:23:29.617Z,248.00
2018-05-17T03:24:29.616Z,260.00
2018-05-17T03:25:29.613Z,272.00
2018-05-17T03:26:29.611Z,288.00
2018-05-17T03:27:29.608Z,296.00
2018-05-17T03:28:29.607Z,312.00
2018-05-17T03:29:29.606Z,328.00
2018-05-17T03:30:29.605Z,344.00
2018-05-17T03:31:29.598Z,360.00
2018-05-17T03:32:29.599Z,372.00
2018-05-17T03:33:29.595Z,392.00
2018-05-17T03:34:29.593Z,404.00
2018-05-17T03:35:29.593Z,424.00
2018-05-17T03:36:29.588Z,436.00
2018-05-17T03:37:29.586Z,460.00
2018-05-17T03:38:29.586Z,476.00
2018-05-17T03:39:29.590Z,504.00
2018-05-17T03:40:29.578Z,524.00
2018-05-17T03:41:29.579Z,548.00
2018-05-17T03:42:29.573Z,580.00
2018-05-17T03:43:29.572Z,604.00
2018-05-17T03:44:29.569Z,640.00
2018-05-17T03:45:29.568Z,676.00
2018-05-17T03:46:29.573Z,720.00
2018-05-17T03:47:29.567Z,760.00
2018-05-17T03:48:29.561Z,800.00
2018-05-17T03:49:29.558Z,836.00
2018-05-17T03:50:29.557Z,872.00
2018-05-17T03:51:29.554Z,904.00
2018-05-17T03:52:29.552Z,944.00
2018-05-17T03:53:29.549Z,992.00
2018-05-17T03:54:29.549Z,1044.00
2018-05-17T03:55:29.540Z,1096.00
2018-05-17T03:56:29.541Z,1140.00
2018-05-17T03:57:29.540Z,1184.00
2018-05-17T03:58:29.537Z,1224.00
2018-05-17T03:59:29.535Z,1268.00
2018-05-17T04:00:29.532Z,1316.00
2018-05-17T04:01:29.539Z,1396.00
2018-05-17T04:02:29.529Z,1480.00
2018-05-17T04:03:29.527Z,1572.00
2018-05-17T04:04:29.523Z,1656.00
2018-05-17T04:05:29.521Z,1724.00
2018-05-17T04:06:29.514Z,1808.00
2018-05-17T04:07:29.515Z,1904.00
2018-05-17T04:08:29.524Z,1996.00
2018-05-17T04:09:29.510Z,2088.00
2018-05-17T04:10:29.510Z,2176.00
2018-05-17T04:11:29.504Z,2260.00
2018-05-17T04:12:29.503Z,2332.00
2018-05-17T04:13:29.510Z,2412.00
2018-05-17T04:14:29.508Z,2508.00
2018-05-17T04:15:29.498Z,2568.00
2018-05-17T04:16:29.496Z,2632.00
2018-05-17T04:17:29.496Z,2704.00
2018-05-17T04:18:29.490Z,2788.00
2018-05-17T04:19:29.490Z,2848.00
2018-05-17T04:20:29.488Z,2928.00
2018-05-17T04:21:29.487Z,3008.00
2018-05-17T04:22:29.481Z,3092.00
2018-05-17T04:23:29.481Z,3204.00
2018-05-17T04:24:29.482Z,3300.00
2018-05-17T04:25:29.479Z,3432.00
2018-05-17T04:26:29.477Z,3568.00
2018-05-17T04:27:29.481Z,3676.00
2018-05-17T04:28:29.474Z,3792.00
2018-05-17T04:29:29.469Z,3904.00
2018-05-17T04:30:29.470Z,4048.00
2018-05-17T04:31:29.467Z,4160.00
2018-05-17T04:32:29.462Z,4268.00
2018-05-17T04:33:29.475Z,4352.00
2018-05-17T04:34:29.466Z,4432.00
2018-05-17T04:35:29.461Z,4560.00
2018-05-17T04:36:29.459Z,4644.00
2018-05-17T04:37:29.461Z,4756.00
2018-05-17T04:38:29.457Z,4848.00
2018-05-17T04:39:29.458Z,4956.00
2018-05-17T04:40:29.514Z,5048.00
2018-05-17T04:41:29.452Z,5144.00
2018-05-17T04:42:29.448Z,5220.00
2018-05-17T04:43:29.450Z,5268.00
2018-05-17T04:44:29.449Z,5336.00
2018-05-17T04:45:29.448Z,5408.00
2018-05-17T04:46:29.451Z,5480.00
2018-05-17T04:47:29.446Z,5532.00
2018-05-17T04:48:29.445Z,5564.00
2018-05-17T04:49:29.443Z,5592.00
2018-05-17T04:50:29.451Z,5672.00
2018-05-17T04:51:29.442Z,5776.00
2018-05-17T04:52:29.441Z,5856.00
2018-05-17T04:53:29.444Z,5936.00
2018-05-17T04:54:29.442Z,6052.00
2018-05-17T04:55:29.444Z,6164.00
2018-05-17T04:56:29.438Z,6312.00
2018-05-17T04:57:29.438Z,6324.00
2018-05-17T04:58:29.441Z,6380.00
2018-05-17T04:59:29.437Z,6444.00
2018-05-17T05:00:29.438Z,6576.00
2018-05-17T05:01:29.434Z,6640.00
2018-05-17T05:02:29.439Z,6636.00
2018-05-17T05:03:29.438Z,6696.00
2018-05-17T05:04:29.442Z,6784.00
2018-05-17T05:05:29.433Z,6840.00
2018-05-17T05:06:29.434Z,6948.00
2018-05-17T05:07:29.436Z,7004.00
2018-05-17T05:08:29.433Z,7088.00
2018-05-17T05:09:29.469Z,7116.00
2018-05-17T05:10:29.431Z,7200.00
2018-05-17T05:11:29.436Z,7216.00
2018-05-17T05:12:29.433Z,7272.00
2018-05-17T05:13:29.434Z,7412.00
2018-05-17T05:14:29.432Z,7544.00
2018-05-17T05:15:29.429Z,7684.00
2018-05-17T05:16:29.430Z,7836.00
2018-05-17T05:17:29.435Z,7856.00
2018-05-17T05:18:29.439Z,7956.00
2018-05-17T05:19:29.443Z,7904.00
2018-05-17T05:20:29.436Z,7868.00
2018-05-17T05:21:29.431Z,7752.00
2018-05-17T05:22:29.436Z,7628.00
2018-05-17T05:23:29.436Z,7500.00
2018-05-17T05:24:29.437Z,7452.00
2018-05-17T05:25:29.438Z,7252.00
2018-05-17T05:26:29.436Z,7672.00
2018-05-17T05:27:29.442Z,7984.00
2018-05-17T05:28:29.440Z,8236.00
2018-05-17T05:29:29.439Z,8388.00
2018-05-17T05:30:29.441Z,8508.00
2018-05-17T05:31:29.508Z,8244.00
2018-05-17T05:32:29.443Z,7688.00
2018-05-17T05:33:29.444Z,6700.00
2018-05-17T05:34:29.443Z,6680.00
2018-05-17T05:35:29.444Z,6020.00
2018-05-17T05:36:29.450Z,6868.00
2018-05-17T05:37:29.497Z,7872.00
2018-05-17T05:38:29.456Z,6960.00
2018-05-17T05:39:29.448Z,5744.00
2018-05-17T05:40:29.447Z,5360.00
2018-05-17T05:41:29.453Z,5140.00
2018-05-17T05:42:29.451Z,5016.00
2018-05-17T05:43:29.454Z,4964.00
2018-05-17T05:44:29.453Z,5044.00
2018-05-17T05:45:29.456Z,5376.00
2018-05-17T05:46:29.461Z,5668.00
2018-05-17T05:47:29.454Z,5556.00
2018-05-17T05:48:29.456Z,5532.00
2018-05-17T05:49:29.539Z,5620.00
2018-05-17T05:50:29.455Z,5640.00
2018-05-17T05:51:29.457Z,5800.00
2018-05-17T05:52:29.462Z,6684.00
2018-05-17T05:53:29.463Z,8108.00
2018-05-17T05:54:29.458Z,8960.00
2018-05-17T05:55:29.464Z,9108.00
2018-05-17T05:56:29.459Z,9164.00
2018-05-17T05:57:29.460Z,9228.00
2018-05-17T05:58:29.460Z,9252.00
2018-05-17T05:59:29.462Z,9152.00
2018-05-17T06:00:29.462Z,9144.00
2018-05-17T06:01:29.463Z,9108.00
2018-05-17T06:02:29.612Z,9128.00
2018-05-17T06:03:29.462Z,9076.00
2018-05-17T06:04:29.469Z,9072.00
2018-05-17T06:05:29.467Z,9080.00
2018-05-17T06:06:29.467Z,9092.00
2018-05-17T06:07:29.469Z,9140.00
2018-05-17T06:08:29.472Z,9188.00
2018-05-17T06:09:29.472Z,9260.00
2018-05-17T06:10:29.476Z,10132.00
2018-05-17T06:11:29.472Z,11124.00
2018-05-17T06:12:29.480Z,9744.00
2018-05-17T06:13:29.479Z,9104.00
2018-05-17T06:14:29.478Z,9040.00
2018-05-17T06:15:29.482Z,8996.00
2018-05-17T06:16:29.480Z,9048.00
2018-05-17T06:17:29.532Z,9000.00
2018-05-17T06:18:29.490Z,8968.00
2018-05-17T06:19:29.485Z,8884.00
2018-05-17T06:20:29.489Z,8596.00
2018-05-17T06:21:29.490Z,8660.00
2018-05-17T06:22:29.493Z,8820.00
2018-05-17T06:23:29.495Z,8712.00
2018-05-17T06:24:29.500Z,8556.00
2018-05-17T06:25:29.501Z,8368.00
2018-05-17T06:26:29.501Z,8536.00
2018-05-17T06:27:29.501Z,8792.00
2018-05-17T06:28:29.504Z,9136.00
2018-05-17T06:29:29.509Z,9280.00
2018-05-17T06:30:29.641Z,9252.00
2018-05-17T06:31:29.512Z,9696.00
2018-05-17T06:32:29.520Z,9884.00
2018-05-17T06:33:29.517Z,10196.00
2018-05-17T06:34:29.521Z,10396.00
2018-05-17T06:35:29.521Z,10544.00
2018-05-17T06:36:29.523Z,11008.00
2018-05-17T06:37:29.526Z,11848.00
2018-05-17T06:38:29.529Z,15712.00
2018-05-17T06:39:29.533Z,22784.00
2018-05-17T06:40:29.537Z,29696.00
2018-05-17T06:41:29.538Z,31520.00
2018-05-17T06:42:29.536Z,35264.00
2018-05-17T06:43:29.543Z,31488.00
2018-05-17T06:44:29.551Z,24768.00
2018-05-17T06:45:29.548Z,22560.00
2018-05-17T06:46:29.580Z,15456.00
2018-05-17T06:47:29.555Z,18912.00
2018-05-17T06:48:29.556Z,22272.00
2018-05-17T06:49:29.562Z,21824.00
2018-05-17T06:50:29.556Z,19616.00
2018-05-17T06:51:29.572Z,17824.00
2018-05-17T06:52:29.566Z,15776.00
2018-05-17T06:53:29.569Z,17408.00
2018-05-17T06:54:29.576Z,27008.00
2018-05-17T06:55:29.583Z,21024.00
2018-05-17T06:56:29.578Z,27296.00
2018-05-17T06:57:29.593Z,44864.00
2018-05-17T06:58:29.583Z,44896.00
2018-05-17T06:59:29.585Z,44992.00
2018-05-17T07:00:29.616Z,44800.00
2018-05-17T07:01:29.590Z,45760.00
2018-05-17T07:02:29.592Z,47616.00
2018-05-17T07:03:29.593Z,46912.00
2018-05-17T07:04:29.598Z,46784.00
2018-05-17T07:05:29.601Z,47072.00
2018-05-17T07:06:29.609Z,47648.00
2018-05-17T07:07:29.604Z,41664.00
2018-05-17T07:08:29.607Z,46560.00
2018-05-17T07:09:29.618Z,46464.00
2018-05-17T07:10:29.667Z,49600.00
2018-05-17T07:11:29.616Z,52032.00
2018-05-17T07:12:29.622Z,51488.00
2018-05-17T07:13:29.630Z,49664.00
2018-05-17T07:14:29.626Z,50048.00
2018-05-17T07:15:29.631Z,52512.00
2018-05-17T07:16:29.635Z,51104.00
2018-05-17T07:17:29.640Z,50560.00
2018-05-17T07:18:29.848Z,53536.00
2018-05-17T07:19:30.052Z,53152.00
2018-05-17T07:20:29.650Z,52896.00
2018-05-17T07:21:29.657Z,55616.00
2018-05-17T07:22:29.668Z,57216.00
2018-05-17T07:23:29.663Z,55776.00
2018-05-17T07:24:29.667Z,55008.00
2018-05-17T07:25:29.672Z,56320.00
2018-05-17T07:26:29.680Z,56480.00
2018-05-17T07:27:29.681Z,55680.00
2018-05-17T07:28:29.691Z,54368.00
2018-05-17T07:29:29.687Z,55872.00
2018-05-17T07:30:29.694Z,59616.00
2018-05-17T07:31:29.811Z,59456.00
2018-05-17T07:32:29.704Z,54624.00
2018-05-17T07:33:29.705Z,53152.00
2018-05-17T07:34:29.711Z,56384.00
2018-05-17T07:35:29.717Z,58688.00
2018-05-17T07:36:29.721Z,58816.00
2018-05-17T07:37:29.726Z,61888.00
2018-05-17T07:38:29.728Z,62816.00
2018-05-17T07:39:29.735Z,63744.00
2018-05-17T07:40:29.742Z,62208.00
2018-05-17T07:41:29.743Z,63072.00
2018-05-17T07:42:29.749Z,62496.00
2018-05-17T07:43:29.756Z,61408.00
2018-05-17T07:44:29.761Z,59520.00
2018-05-17T07:45:29.764Z,61664.00
2018-05-17T07:46:29.766Z,67200.00
2018-05-17T07:47:29.769Z,65312.00
2018-05-17T07:48:29.775Z,58880.00
2018-05-17T07:49:29.783Z,43520.00
2018-05-17T07:50:29.789Z,52832.00
2018-05-17T07:51:29.795Z,53376.00
2018-05-17T07:52:29.800Z,54304.00
2018-05-17T07:53:29.806Z,57696.00
2018-05-17T07:54:29.812Z,56544.00
2018-05-17T07:55:29.903Z,50144.00
2018-05-17T07:56:29.825Z,45856.00
2018-05-17T07:57:29.839Z,43712.00
2018-05-17T07:58:29.839Z,47520.00
2018-05-17T07:59:29.841Z,48640.00
2018-05-17T08:00:29.858Z,45376.00
2018-05-17T08:01:29.851Z,45632.00
2018-05-17T08:02:29.857Z,48960.00
2018-05-17T08:03:29.864Z,51328.00
2018-05-17T08:04:29.869Z,53376.00
2018-05-17T08:05:29.877Z,58240.00
2018-05-17T08:06:29.886Z,56608.00
2018-05-17T08:07:29.889Z,57408.00
2018-05-17T08:08:29.894Z,60608.00
2018-05-17T08:09:29.997Z,64800.00
2018-05-17T08:10:29.906Z,67168.00
2018-05-17T08:11:29.914Z,68960.00
2018-05-17T08:12:29.925Z,64000.00
2018-05-17T08:13:29.924Z,58208.00
2018-05-17T08:14:29.936Z,58880.00
2018-05-17T08:15:29.945Z,63488.00
2018-05-17T08:16:29.952Z,64096.00
2018-05-17T08:17:29.962Z,66784.00
2018-05-17T08:18:30.077Z,69792.00
2018-05-17T08:19:29.964Z,57472.00
2018-05-17T08:20:29.978Z,63808.00
2018-05-17T08:21:29.987Z,62848.00
2018-05-17T08:22:29.990Z,64224.00
2018-05-17T08:23:29.995Z,32000.00
2018-05-17T08:24:30.004Z,12340.00
2018-05-17T08:25:30.012Z,12032.00
2018-05-17T08:26:30.017Z,62592.00
2018-05-17T08:27:30.024Z,31456.00
2018-05-17T08:28:30.029Z,9480.00
2018-05-17T08:29:30.036Z,8384.00
2018-05-17T08:30:30.042Z,6856.00
2018-05-17T08:31:30.051Z,8068.00
2018-05-17T08:32:30.059Z,18016.00
2018-05-17T08:33:30.063Z,30624.00
2018-05-17T08:34:30.068Z,43200.00
2018-05-17T08:35:30.075Z,53088.00
2018-05-17T08:36:30.221Z,63232.00
2018-05-17T08:37:30.088Z,56288.00
2018-05-17T08:38:30.094Z,79232.00
2018-05-17T08:39:30.101Z,77984.00
2018-05-17T08:40:30.105Z,63552.00
2018-05-17T08:41:30.113Z,72576.00
2018-05-17T08:42:30.124Z,72768.00
2018-05-17T08:43:30.123Z,71008.00
2018-05-17T08:44:30.128Z,72064.00
2018-05-17T08:45:30.139Z,72640.00
2018-05-17T08:46:30.141Z,67552.00
2018-05-17T08:47:30.149Z,73696.00
2018-05-17T08:48:30.155Z,76384.00
2018-05-17T08:49:30.161Z,75200.00
2018-05-17T08:50:30.168Z,74240.00
2018-05-17T08:51:30.185Z,64384.00
2018-05-17T08:52:30.185Z,72576.00
2018-05-17T08:53:30.191Z,43008.00
2018-05-17T08:54:30.252Z,16960.00
2018-05-17T08:55:30.206Z,12700.00
2018-05-17T08:56:30.206Z,8192.00
2018-05-17T08:57:30.222Z,8884.00
2018-05-17T08:58:30.223Z,9296.00
2018-05-17T08:59:30.231Z,8780.00
2018-05-17T09:00:30.235Z,8784.00
2018-05-17T09:01:30.242Z,8532.00
2018-05-17T09:02:30.252Z,8416.00
2018-05-17T09:03:30.252Z,7904.00
2018-05-17T09:04:30.256Z,7668.00
2018-05-17T09:05:30.263Z,7556.00
2018-05-17T09:06:30.265Z,7472.00
2018-05-17T09:07:30.273Z,7664.00
2018-05-17T09:08:30.277Z,7968.00
2018-05-17T09:09:30.285Z,8372.00
2018-05-17T09:10:30.286Z,8332.00
2018-05-17T09:11:30.290Z,8332.00
2018-05-17T09:12:30.295Z,8084.00
2018-05-17T09:13:30.343Z,7540.00
2018-05-17T09:14:30.306Z,6864.00
2018-05-17T09:15:30.307Z,7592.00
2018-05-17T09:16:30.312Z,7688.00
2018-05-17T09:17:30.319Z,8504.00
2018-05-17T09:18:30.323Z,9144.00
2018-05-17T09:19:30.320Z,10048.00
2018-05-17T09:20:30.392Z,11188.00
2018-05-17T09:21:30.334Z,10580.00
2018-05-17T09:22:30.331Z,11344.00
2018-05-17T09:23:30.377Z,12292.00
2018-05-17T09:24:30.337Z,10368.00
2018-05-17T09:25:30.341Z,8328.00
2018-05-17T09:26:30.347Z,6300.00
2018-05-17T09:27:30.346Z,5772.00
2018-05-17T09:28:30.352Z,6424.00
2018-05-17T09:29:30.354Z,7772.00
2018-05-17T09:30:30.356Z,8128.00
2018-05-17T09:31:30.360Z,7568.00
2018-05-17T09:32:30.369Z,8628.00
2018-05-17T09:33:30.367Z,10408.00
2018-05-17T09:34:30.373Z,7596.00
2018-05-17T09:35:30.374Z,6236.00
2018-05-17T09:36:30.382Z,7640.00
2018-05-17T09:37:30.380Z,8448.00
2018-05-17T09:38:30.388Z,9592.00
2018-05-17T09:39:30.384Z,9708.00
2018-05-17T09:40:30.389Z,9340.00
2018-05-17T09:41:30.428Z,8728.00
2018-05-17T09:42:30.396Z,9576.00
2018-05-17T09:43:30.395Z,10456.00
2018-05-17T09:44:30.399Z,9784.00
2018-05-17T09:45:30.405Z,6788.00
2018-05-17T09:46:30.413Z,6580.00
2018-05-17T09:47:30.431Z,7064.00
2018-05-17T09:48:30.410Z,9332.00
2018-05-17T09:49:30.411Z,10468.00
2018-05-17T09:50:30.419Z,9044.00
2018-05-17T09:51:30.417Z,8792.00
2018-05-17T09:52:30.418Z,8144.00
2018-05-17T09:53:30.429Z,7588.00
2018-05-17T09:54:30.431Z,7344.00
2018-05-17T09:55:30.425Z,7288.00
2018-05-17T09:56:30.428Z,7128.00
2018-05-17T09:57:30.435Z,6972.00
2018-05-17T09:58:30.434Z,6820.00
2018-05-17T09:59:30.450Z,6932.00
2018-05-17T10:00:30.440Z,7448.00
2018-05-17T10:01:30.521Z,7756.00
2018-05-17T10:02:30.445Z,7392.00
2018-05-17T10:03:30.448Z,7604.00
2018-05-17T10:04:30.451Z,7400.00
2018-05-17T10:05:30.453Z,7272.00
2018-05-17T10:06:30.459Z,6776.00
2018-05-17T10:07:30.457Z,6992.00
2018-05-17T10:08:30.459Z,7544.00
2018-05-17T10:09:30.468Z,8268.00
2018-05-17T10:10:30.470Z,8556.00
2018-05-17T10:11:30.465Z,7936.00
2018-05-17T10:12:30.471Z,7792.00
2018-05-17T10:13:30.470Z,8172.00
2018-05-17T10:14:30.506Z,8940.00
2018-05-17T10:15:30.485Z,8696.00
2018-05-17T10:16:30.481Z,7872.00
2018-05-17T10:17:30.477Z,8764.00
2018-05-17T10:18:30.482Z,7992.00
2018-05-17T10:19:30.483Z,7960.00
2018-05-17T10:20:30.485Z,7776.00
2018-05-17T10:21:30.504Z,7140.00
2018-05-17T10:22:30.497Z,6944.00
2018-05-17T10:23:30.495Z,7160.00
2018-05-17T10:24:30.495Z,7240.00
2018-05-17T10:25:30.502Z,7460.00
2018-05-17T10:26:30.502Z,7564.00
2018-05-17T10:27:30.502Z,7460.00
2018-05-17T10:28:30.509Z,7280.00
2018-05-17T10:29:30.526Z,6728.00
2018-05-17T10:30:30.512Z,6756.00
2018-05-17T10:31:30.516Z,6812.00
2018-05-17T10:32:30.516Z,6416.00
2018-05-17T10:33:30.528Z,6232.00
2018-05-17T10:34:30.521Z,5916.00
2018-05-17T10:35:30.522Z,5780.00
2018-05-17T10:36:30.528Z,5672.00
2018-05-17T10:37:30.526Z,5472.00
2018-05-17T10:38:30.529Z,5372.00
2018-05-17T10:39:30.531Z,5392.00
2018-05-17T10:40:30.534Z,5480.00
2018-05-17T10:41:30.537Z,5512.00
2018-05-17T10:42:30.535Z,5504.00
2018-05-17T10:43:30.539Z,5420.00
2018-05-17T10:44:30.543Z,5368.00
2018-05-17T10:45:30.545Z,5292.00
2018-05-17T10:46:30.553Z,5252.00
2018-05-17T10:47:30.550Z,5200.00
2018-05-17T10:48:30.574Z,5140.00
2018-05-17T10:49:30.557Z,5104.00
2018-05-17T10:50:30.869Z,5096.00
2018-05-17T10:51:30.559Z,5108.00
2018-05-17T10:52:30.756Z,5072.00
2018-05-17T10:53:30.565Z,5100.00
2018-05-17T10:54:30.612Z,5092.00
2018-05-17T10:55:30.568Z,5076.00
2018-05-17T10:56:30.569Z,5084.00
2018-05-17T10:57:31.555Z,5080.00
2018-05-17T10:58:30.576Z,5052.00
2018-05-17T10:59:30.602Z,4924.00
2018-05-17T11:00:30.584Z,4984.00
2018-05-17T11:01:30.585Z,4820.00
2018-05-17T11:02:30.622Z,4868.00
2018-05-17T11:03:30.588Z,4872.00
2018-05-17T11:04:30.589Z,4868.00
2018-05-17T11:05:30.589Z,4924.00
2018-05-17T11:06:30.593Z,4948.00
2018-05-17T11:07:30.595Z,4992.00
2018-05-17T11:08:30.597Z,5124.00
2018-05-17T11:09:30.601Z,5300.00
2018-05-17T11:10:30.602Z,5244.00
2018-05-17T11:11:30.603Z,5284.00
2018-05-17T11:12:30.604Z,5472.00
2018-05-17T11:13:30.608Z,5324.00
2018-05-17T11:14:30.612Z,5260.00
2018-05-17T11:15:30.613Z,5172.00
2018-05-17T11:16:30.619Z,5332.00
2018-05-17T11:17:30.622Z,5328.00
2018-05-17T11:18:30.625Z,5412.00
2018-05-17T11:19:31.135Z,5500.00
2018-05-17T11:20:30.634Z,5136.00
2018-05-17T11:21:30.846Z,4988.00
2018-05-17T11:22:30.632Z,5020.00
2018-05-17T11:23:30.634Z,4984.00
2018-05-17T11:24:30.636Z,4904.00
2018-05-17T11:25:30.640Z,4844.00
2018-05-17T11:26:30.698Z,4780.00
2018-05-17T11:27:30.640Z,4548.00
2018-05-17T11:28:30.640Z,4760.00
2018-05-17T11:29:30.643Z,4572.00
2018-05-17T11:30:30.648Z,4792.00
2018-05-17T11:31:30.651Z,4824.00
2018-05-17T11:32:30.654Z,4844.00
2018-05-17T11:33:30.655Z,5004.00
2018-05-17T11:34:30.662Z,5500.00
2018-05-17T11:35:30.660Z,6548.00
2018-05-17T11:36:30.660Z,6740.00
2018-05-17T11:37:30.666Z,6108.00
2018-05-17T11:38:30.762Z,5592.00
2018-05-17T11:39:30.671Z,5552.00
2018-05-17T11:40:30.673Z,5212.00
2018-05-17T11:41:30.675Z,5120.00
2018-05-17T11:42:30.680Z,5104.00
2018-05-17T11:43:30.685Z,5100.00
2018-05-17T11:44:30.849Z,5096.00
2018-05-17T11:45:30.686Z,5132.00
2018-05-17T11:46:30.732Z,5124.00
2018-05-17T11:47:30.695Z,5168.00
2018-05-17T11:48:30.781Z,5104.00
2018-05-17T11:49:30.695Z,4944.00
2018-05-17T11:50:30.716Z,5232.00
2018-05-17T11:51:30.790Z,5304.00
2018-05-17T11:52:30.782Z,5012.00
2018-05-17T11:53:30.702Z,5264.00
2018-05-17T11:54:30.707Z,5148.00
2018-05-17T11:55:30.709Z,5460.00
2018-05-17T11:56:30.724Z,5452.00
2018-05-17T11:57:30.715Z,5432.00
2018-05-17T11:58:30.717Z,5428.00
2018-05-17T11:59:30.719Z,5588.00
2018-05-17T12:00:30.727Z,5932.00
2018-05-17T12:01:30.812Z,6636.00
2018-05-17T12:02:30.727Z,7488.00
2018-05-17T12:03:30.726Z,7048.00
2018-05-17T12:04:30.729Z,5940.00
2018-05-17T12:05:30.734Z,5592.00
2018-05-17T12:06:30.739Z,5408.00
2018-05-17T12:07:30.760Z,5432.00
2018-05-17T12:08:30.741Z,5304.00
2018-05-17T12:09:30.744Z,5240.00
2018-05-17T12:10:30.749Z,5400.00
2018-05-17T12:11:30.748Z,5736.00
2018-05-17T12:12:30.752Z,5648.00
2018-05-17T12:13:30.756Z,5408.00
2018-05-17T12:14:30.762Z,5408.00
2018-05-17T12:15:30.760Z,5572.00
2018-05-17T12:16:30.762Z,5508.00
2018-05-17T12:17:30.763Z,5332.00
2018-05-17T12:18:30.767Z,5268.00
2018-05-17T12:19:30.773Z,5236.00